Time;durP1;ratioP1;P1;durP2;ratioP2;P2;SDS_P1;SDS_P2;PMS_P1;PMS_P2;Temp;Humidity;BMP_temperature;BMP_pressure;BME280_temperature;BME280_humidity;BME280_pressure;Samples;Min_cycle;Max_cycle;Signal;HPM_P1;HPM_P2
2023/07/15 00:05:27;;;;;;;1.88;0.98;;;;;;;20.52;61.97;97886.44;15282596;19;20019;-73
2023/07/15 00:10:52;;;;;;;3.55;0.93;;;;;;;20.47;63.07;97889.09;15282258;19;20014;-73
2023/07/15 00:16:19;;;;;;;2.97;1.10;;;;;;;20.38;63.61;97882.31;15276251;19;20313;-73
2023/07/15 00:21:44;;;;;;;1.80;0.90;;;;;;;20.27;65.06;97873.88;15279628;19;20014;-75
2023/07/15 00:27:08;;;;;;;3.15;1.00;;;;;;;20.20;65.46;97877.78;15280117;19;20022;-74
2023/07/15 00:32:36;;;;;;;2.45;1.20;;;;;;;20.11;66.37;97872.66;15282274;19;20018;-74
2023/07/15 00:38:01;;;;;;;1.10;0.90;;;;;;;20.04;67.90;97871.13;15283373;19;20030;-75
2023/07/15 00:43:58;;;;;;;1.17;0.90;;;;;;;19.94;69.03;97861.56;15281600;19;20017;-74
2023/07/15 00:49:28;;;;;;;1.88;1.00;;;;;;;19.88;70.20;97854.34;15278118;19;20014;-74
2023/07/15 00:54:56;;;;;;;1.80;1.00;;;;;;;19.79;72.50;97848.34;15279389;19;20354;-74
2023/07/15 01:00:22;;;;;;;1.08;0.90;;;;;;;19.73;73.78;97851.19;15279028;19;20010;-73
2023/07/15 01:05:51;;;;;;;1.27;0.70;;;;;;;19.69;74.63;97851.66;15278326;19;20026;-73
2023/07/15 01:11:22;;;;;;;2.42;1.00;;;;;;;19.65;74.91;97847.72;15278148;19;20025;-73
2023/07/15 01:16:48;;;;;;;5.57;0.90;;;;;;;19.64;75.61;97848.78;15277797;19;20007;-73
2023/07/15 01:22:15;;;;;;;2.15;1.10;;;;;;;19.62;76.53;97840.00;15273788;19;20013;-73
2023/07/15 01:27:44;;;;;;;2.28;1.10;;;;;;;19.60;78.09;97838.56;15280616;19;20048;-73
2023/07/15 01:33:08;;;;;;;4.30;1.10;;;;;;;19.58;77.58;97844.25;15278160;19;20367;-75
2023/07/15 01:38:33;;;;;;;2.15;0.90;;;;;;;19.57;78.57;97839.88;15281971;19;20835;-75
2023/07/15 01:44:02;;;;;;;3.13;0.90;;;;;;;19.54;79.35;97834.88;15282200;19;20488;-75
2023/07/15 01:49:27;;;;;;;2.00;0.80;;;;;;;19.53;81.82;97841.41;15278998;19;20010;-75
2023/07/15 01:54:53;;;;;;;1.00;0.70;;;;;;;19.52;82.62;97834.28;15274247;19;20009;-73
2023/07/15 02:00:21;;;;;;;3.38;0.70;;;;;;;19.53;84.66;97835.94;15274921;19;20007;-74
2023/07/15 02:05:48;;;;;;;3.92;1.00;;;;;;;19.52;85.23;97831.53;15271235;19;20056;-73
2023/07/15 02:11:13;;;;;;;1.98;0.77;;;;;;;19.51;87.75;97838.06;15274594;19;20014;-74
2023/07/15 02:16:40;;;;;;;1.67;0.90;;;;;;;19.50;90.00;97822.75;15271576;19;20011;-75
2023/07/15 02:22:06;;;;;;;2.58;1.05;;;;;;;19.51;93.69;97822.53;15270784;19;20018;-74
2023/07/15 02:27:31;;;;;;;1.85;0.85;;;;;;;19.50;95.33;97814.53;15274372;19;20010;-74
2023/07/15 02:32:59;;;;;;;1.17;0.80;;;;;;;19.46;98.78;97814.19;15276285;19;20018;-73
2023/07/15 02:38:23;;;;;;;1.75;0.90;;;;;;;19.38;99.11;97817.25;15277203;19;20010;-74
2023/07/15 02:43:48;;;;;;;1.55;1.00;;;;;;;19.28;100.00;97820.56;15274737;19;20021;-75
2023/07/15 02:49:15;;;;;;;1.13;0.73;;;;;;;19.20;100.00;97809.97;15275587;19;20015;-75
2023/07/15 02:54:41;;;;;;;0.98;0.80;;;;;;;19.05;100.00;97816.69;15276370;19;20593;-74
2023/07/15 03:00:11;;;;;;;2.83;0.93;;;;;;;18.96;100.00;97812.59;15270764;19;20010;-74
2023/07/15 03:05:39;;;;;;;2.05;0.90;;;;;;;18.96;100.00;97815.34;15276591;19;20017;-73
2023/07/15 03:11:15;;;;;;;1.73;0.90;;;;;;;18.97;100.00;97822.47;15290125;19;20014;-73
2023/07/15 03:16:39;;;;;;;3.58;0.98;;;;;;;18.94;100.00;97817.47;15287233;19;20031;-73
2023/07/15 03:22:07;;;;;;;2.95;0.95;;;;;;;18.93;100.00;97821.22;15295550;19;20030;-73
2023/07/15 03:27:32;;;;;;;1.52;0.80;;;;;;;18.92;100.00;97819.53;15293255;19;20015;-73
2023/07/15 03:32:57;;;;;;;2.10;1.00;;;;;;;18.92;100.00;97811.34;15291427;19;20027;-73
2023/07/15 03:38:25;;;;;;;2.45;0.85;;;;;;;18.91;100.00;97809.69;15293140;19;20018;-73
2023/07/15 03:43:50;;;;;;;2.60;0.73;;;;;;;18.95;100.00;97816.41;15289262;19;20081;-73
2023/07/15 03:49:14;;;;;;;1.20;0.73;;;;;;;18.97;100.00;97808.81;15299694;19;20513;-73
2023/07/15 03:54:42;;;;;;;2.80;0.80;;;;;;;18.99;100.00;97814.03;15323211;19;20051;-73
2023/07/15 04:00:13;;;;;;;1.30;0.80;;;;;;;18.97;100.00;97813.44;15322184;19;20026;-73
2023/07/15 04:05:38;;;;;;;1.73;0.90;;;;;;;18.91;100.00;97812.41;15319030;19;20494;-73
2023/07/15 04:11:09;;;;;;;2.38;0.75;;;;;;;18.91;100.00;97812.41;15301787;19;20022;-73
2023/07/15 04:16:33;;;;;;;1.10;0.80;;;;;;;18.99;100.00;97816.75;15313191;19;20018;-73
2023/07/15 04:21:57;;;;;;;1.60;0.73;;;;;;;19.01;100.00;97822.84;15298472;19;20018;-73
2023/07/15 04:27:25;;;;;;;1.35;0.80;;;;;;;19.01;100.00;97818.19;15301766;19;20011;-73
2023/07/15 04:32:49;;;;;;;1.42;0.80;;;;;;;19.04;100.00;97806.81;15319558;19;20019;-73
2023/07/15 04:38:14;;;;;;;2.50;0.70;;;;;;;19.09;100.00;97809.69;15333956;19;20014;-73
2023/07/15 04:43:41;;;;;;;1.30;0.70;;;;;;;19.22;100.00;97816.03;15310217;19;20021;-73
2023/07/15 04:49:06;;;;;;;1.48;0.80;;;;;;;19.30;100.00;97825.78;15293944;19;20411;-74
2023/07/15 04:54:32;;;;;;;2.35;0.70;;;;;;;19.46;100.00;97824.28;15281778;19;20021;-72
2023/07/15 05:00:04;;;;;;;1.10;0.75;;;;;;;19.60;100.00;97822.19;15287339;19;20622;-72
2023/07/15 05:05:28;;;;;;;0.95;0.88;;;;;;;19.71;100.00;97821.38;15284506;19;20013;-72
2023/07/15 05:11:00;;;;;;;1.98;0.90;;;;;;;19.85;100.00;97822.81;15286750;19;20726;-76
2023/07/15 05:16:29;;;;;;;2.28;0.60;;;;;;;19.99;100.00;97822.63;15286962;19;20006;-72
2023/07/15 05:21:54;;;;;;;1.88;1.00;;;;;;;20.16;100.00;97820.81;15286672;19;20078;-75
2023/07/15 05:27:19;;;;;;;1.42;0.77;;;;;;;20.38;100.00;97824.84;15285116;19;20031;-75
2023/07/15 05:32:46;;;;;;;1.30;0.80;;;;;;;20.54;100.00;97829.56;15283844;19;20018;-74
2023/07/15 05:38:11;;;;;;;1.20;0.90;;;;;;;20.73;100.00;97826.69;15282402;19;20025;-74
2023/07/15 05:43:36;;;;;;;7.75;0.90;;;;;;;20.92;100.00;97828.22;15283489;19;20021;-75
2023/07/15 05:49:04;;;;;;;4.35;0.80;;;;;;;21.15;100.00;97823.72;15286624;19;20014;-73
2023/07/15 05:54:28;;;;;;;2.10;0.93;;;;;;;21.35;100.00;97820.53;15283486;19;20020;-73
2023/07/15 05:59:53;;;;;;;5.63;1.00;;;;;;;21.54;100.00;97823.88;15282587;19;20014;-74
2023/07/15 06:05:22;;;;;;;2.63;0.70;;;;;;;21.76;100.00;97820.44;15282180;19;20019;-74
2023/07/15 06:10:54;;;;;;;4.97;0.82;;;;;;;21.98;100.00;97819.69;15276726;19;20036;-73
2023/07/15 06:16:18;;;;;;;2.22;0.90;;;;;;;22.26;100.00;97824.22;15273796;19;20608;-73
2023/07/15 06:21:46;;;;;;;2.33;0.80;;;;;;;22.50;100.00;97815.78;15282057;19;20520;-74
2023/07/15 06:27:11;;;;;;;0.80;0.60;;;;;;;22.77;100.00;97815.84;15275529;19;20020;-73
2023/07/15 06:32:36;;;;;;;3.45;0.80;;;;;;;22.96;100.00;97817.44;15282382;19;20018;-75
2023/07/15 06:38:03;;;;;;;0.68;0.68;;;;;;;23.21;100.00;97806.78;15277855;19;20561;-74
2023/07/15 06:43:28;;;;;;;2.10;0.80;;;;;;;23.44;100.00;97806.72;15274884;19;20050;-74
2023/07/15 06:48:52;;;;;;;1.77;0.73;;;;;;;23.66;100.00;97787.38;15277157;19;20011;-74
2023/07/15 06:54:20;;;;;;;1.52;0.70;;;;;;;23.95;98.36;97782.41;15277907;19;20012;-73
2023/07/15 06:59:44;;;;;;;2.10;0.80;;;;;;;24.24;95.23;97782.06;15278783;19;20882;-74
2023/07/15 07:05:03;;;;;;;3.28;0.60;;;;;;;24.46;92.76;97781.88;15275613;19;20021;-75
2023/07/15 07:10:30;;;;;;;1.85;0.70;;;;;;;24.72;87.58;97784.78;15275862;19;20015;-75
2023/07/15 07:15:57;;;;;;;4.10;0.90;;;;;;;24.94;85.18;97794.78;15269196;19;20014;-73
2023/07/15 07:21:22;;;;;;;1.83;0.73;;;;;;;25.10;85.10;97786.56;15272026;19;20018;-73
2023/07/15 07:26:50;;;;;;;5.28;0.80;;;;;;;25.31;82.63;97782.72;15270523;19;20632;-72
2023/07/15 07:32:16;;;;;;;0.85;0.70;;;;;;;25.52;79.89;97777.25;15275103;19;20020;-74
2023/07/15 07:37:47;;;;;;;3.25;0.70;;;;;;;25.74;81.60;97776.19;15274557;19;20009;-71
2023/07/15 07:43:14;;;;;;;2.33;0.80;;;;;;;25.93;77.68;97779.22;15271893;19;20491;-74
2023/07/15 07:48:39;;;;;;;0.80;0.70;;;;;;;26.17;71.91;97778.66;15266195;19;20033;-74
2023/07/15 07:54:04;;;;;;;2.90;0.70;;;;;;;26.48;68.01;97784.91;15274688;19;20019;-74
2023/07/15 07:59:31;;;;;;;1.40;0.60;;;;;;;26.67;68.50;97776.81;15290592;19;20011;-74
2023/07/15 08:04:56;;;;;;;4.78;0.63;;;;;;;26.94;66.26;97772.84;15292173;19;20014;-74
2023/07/15 08:10:27;;;;;;;1.75;0.60;;;;;;;27.19;65.14;97765.53;15303614;19;20081;-73
2023/07/15 08:15:54;;;;;;;0.95;0.60;;;;;;;27.43;60.94;97773.09;15279872;19;20035;-73
2023/07/15 08:21:19;;;;;;;3.40;0.70;;;;;;;27.60;62.29;97773.53;15279454;19;20496;-74
2023/07/15 08:26:43;;;;;;;3.60;0.80;;;;;;;27.82;59.95;97773.09;15280589;19;20422;-74
2023/07/15 08:32:11;;;;;;;0.98;0.60;;;;;;;28.12;61.87;97767.59;15287283;19;20043;-73
2023/07/15 08:37:36;;;;;;;2.30;0.50;;;;;;;28.29;57.63;97758.81;15284273;19;20007;-74
2023/07/15 08:43:01;;;;;;;0.95;0.45;;;;;;;28.56;55.81;97768.47;15283135;19;20549;-75
2023/07/15 08:48:28;;;;;;;2.08;0.60;;;;;;;28.73;52.94;97774.38;15283149;19;20017;-75
2023/07/15 08:53:54;;;;;;;2.63;0.50;;;;;;;28.95;53.71;97766.63;15278439;19;20424;-74
2023/07/15 08:59:19;;;;;;;0.55;0.50;;;;;;;29.18;50.81;97771.28;15284637;19;20021;-74
2023/07/15 09:04:47;;;;;;;1.30;0.60;;;;;;;29.27;50.56;97778.94;15278546;19;20015;-74
2023/07/15 09:10:15;;;;;;;1.50;0.43;;;;;;;29.43;49.78;97776.78;15282371;19;20018;-74
2023/07/15 09:15:39;;;;;;;1.50;0.40;;;;;;;29.60;50.39;97777.06;15280654;19;20840;-75
2023/07/15 09:21:14;;;;;;;1.10;0.60;;;;;;;29.78;49.07;97768.97;15280702;19;20479;-74
2023/07/15 09:26:39;;;;;;;1.02;0.50;;;;;;;30.11;49.36;97778.16;15272308;19;20010;-74
2023/07/15 09:32:04;;;;;;;1.50;0.50;;;;;;;30.22;46.06;97777.97;15282030;19;20014;-73
2023/07/15 09:37:40;;;;;;;1.42;0.50;;;;;;;30.53;46.80;97769.88;15274421;19;20006;-73
2023/07/15 09:43:05;;;;;;;2.00;0.50;;;;;;;30.73;45.95;97765.03;15280425;19;20018;-73
2023/07/15 09:48:30;;;;;;;1.75;0.40;;;;;;;30.88;46.01;97772.22;15279378;19;20023;-73
2023/07/15 09:53:59;;;;;;;1.50;0.60;;;;;;;31.09;41.22;97764.25;15278219;19;20627;-74
2023/07/15 09:59:27;;;;;;;0.30;0.22;;;;;;;31.20;41.38;97757.34;15275186;19;20364;-73
2023/07/15 10:04:54;;;;;;;1.02;0.35;;;;;;;31.43;38.89;97753.78;15276752;19;20046;-75
2023/07/15 10:10:22;;;;;;;0.40;0.40;;;;;;;31.59;39.31;97755.03;15278881;19;20014;-74
2023/07/15 10:15:47;;;;;;;0.88;0.40;;;;;;;31.84;39.15;97755.53;15276538;19;20021;-74
2023/07/15 10:21:14;;;;;;;0.82;0.30;;;;;;;32.03;39.43;97746.97;15278285;19;20389;-74
2023/07/15 10:26:50;;;;;;;0.65;0.35;;;;;;;32.12;37.83;97739.47;15274598;19;20017;-72
2023/07/15 10:32:19;;;;;;;0.57;0.38;;;;;;;32.13;38.22;97737.53;15277969;19;20026;-75
2023/07/15 10:37:50;;;;;;;0.73;0.40;;;;;;;32.22;37.81;97749.53;15271321;19;20041;-66
2023/07/15 10:43:19;;;;;;;0.28;0.20;;;;;;;32.42;36.63;97747.34;15276277;19;20636;-65
2023/07/15 10:48:48;;;;;;;3.80;0.40;;;;;;;32.61;38.41;97740.69;15275076;19;20380;-65
2023/07/15 10:54:14;;;;;;;1.92;0.30;;;;;;;32.73;35.90;97746.47;15276323;19;20014;-65
2023/07/15 10:59:46;;;;;;;0.50;0.32;;;;;;;32.94;36.30;97729.13;15273316;19;20011;-66
2023/07/15 11:05:11;;;;;;;0.95;0.32;;;;;;;33.16;36.11;97723.41;15264609;19;20018;-66
2023/07/15 11:10:43;;;;;;;0.50;0.30;;;;;;;33.45;36.75;97716.38;15265277;19;20025;-67
2023/07/15 11:16:10;;;;;;;0.82;0.30;;;;;;;33.83;34.75;97730.72;15268733;19;20530;-67
2023/07/15 11:21:35;;;;;;;1.52;0.40;;;;;;;33.95;36.14;97733.69;15275203;19;20110;-66
2023/07/15 11:27:02;;;;;;;1.73;0.50;;;;;;;34.00;35.09;97727.94;15274648;19;20014;-66
2023/07/15 11:32:30;;;;;;;0.68;0.38;;;;;;;33.88;36.27;97727.81;15285578;19;20003;-66
2023/07/15 11:38:01;;;;;;;1.50;0.60;;;;;;;33.94;34.32;97726.47;15283006;19;20019;-65
2023/07/15 11:43:31;;;;;;;3.30;0.77;;;;;;;34.08;34.67;97718.69;15289380;19;20475;-65
2023/07/15 11:48:59;;;;;;;1.20;0.75;;;;;;;34.26;35.33;97696.28;15287637;19;20014;-66
2023/07/15 11:54:24;;;;;;;2.00;1.00;;;;;;;34.41;33.91;97701.31;15290002;19;20590;-66
2023/07/15 11:59:48;;;;;;;2.38;1.00;;;;;;;34.63;34.37;97716.19;15283470;19;20474;-65
2023/07/15 12:05:19;;;;;;;0.70;0.43;;;;;;;34.84;32.65;97705.00;15282342;19;20349;-66
2023/07/15 12:10:58;;;;;;;1.10;0.38;;;;;;;34.97;32.17;97705.09;15288206;19;20009;-66
2023/07/15 12:16:23;;;;;;;3.53;0.30;;;;;;;35.16;33.00;97707.44;15287932;19;20418;-66
2023/07/15 12:21:51;;;;;;;0.80;0.30;;;;;;;35.37;33.02;97689.78;15288159;19;20025;-68
2023/07/15 12:27:16;;;;;;;0.30;0.30;;;;;;;35.46;31.81;97693.34;15285372;19;20479;-65
2023/07/15 12:32:40;;;;;;;0.20;0.20;;;;;;;35.26;32.30;97700.59;15289195;19;20489;-66
2023/07/15 12:38:14;;;;;;;1.23;0.40;;;;;;;35.15;32.24;97700.19;15278858;19;20081;-66
2023/07/15 12:43:41;;;;;;;1.10;0.30;;;;;;;35.08;32.68;97688.72;15283978;19;20029;-65
2023/07/15 12:49:05;;;;;;;0.63;0.20;;;;;;;35.15;33.49;97694.59;15283871;19;20349;-66
2023/07/15 12:54:32;;;;;;;2.17;0.30;;;;;;;35.05;31.83;97695.00;15286012;19;20015;-66
2023/07/15 12:59:57;;;;;;;1.30;0.40;;;;;;;34.78;32.98;97692.38;15282714;19;20081;-65
2023/07/15 13:05:22;;;;;;;0.38;0.30;;;;;;;34.79;34.05;97687.59;15279900;19;20090;-67
2023/07/15 13:10:49;;;;;;;2.03;0.40;;;;;;;35.09;33.43;97679.97;15281928;19;20029;-67
2023/07/15 13:16:15;;;;;;;0.30;0.30;;;;;;;34.90;33.95;97672.03;15285035;19;20007;-66
2023/07/15 13:21:39;;;;;;;1.48;0.30;;;;;;;34.84;34.07;97662.22;15284281;19;20085;-64
2023/07/15 13:27:07;;;;;;;0.30;0.30;;;;;;;35.00;32.79;97654.84;15283465;19;20018;-66
2023/07/15 13:32:32;;;;;;;0.60;0.27;;;;;;;35.49;32.66;97650.66;15299532;19;20027;-66
2023/07/15 13:38:03;;;;;;;1.00;0.40;;;;;;;35.91;32.17;97641.28;15296888;19;20039;-67
2023/07/15 13:43:30;;;;;;;2.97;0.40;;;;;;;35.96;31.86;97645.84;15286380;19;20011;-67
2023/07/15 13:48:55;;;;;;;0.65;0.32;;;;;;;35.96;32.44;97640.25;15294735;19;20022;-66
2023/07/15 13:54:20;;;;;;;1.90;0.40;;;;;;;36.25;30.88;97623.22;15286337;19;20010;-64
2023/07/15 13:59:47;;;;;;;0.73;0.40;;;;;;;36.22;31.90;97618.31;15280907;19;20036;-65
2023/07/15 14:05:23;;;;;;;2.53;0.30;;;;;;;36.20;32.20;97620.63;15279783;19;20014;-65
2023/07/15 14:10:47;;;;;;;2.95;0.60;;;;;;;36.01;32.31;97629.63;15281219;19;20022;-66
2023/07/15 14:16:14;;;;;;;2.45;0.40;;;;;;;36.38;33.57;97600.75;15280537;19;20027;-68
2023/07/15 14:21:39;;;;;;;1.52;0.40;;;;;;;36.65;32.65;97604.00;15278459;19;20022;-67
2023/07/15 14:27:04;;;;;;;0.68;0.32;;;;;;;37.22;30.96;97593.63;15277355;19;20038;-65
2023/07/15 14:32:32;;;;;;;0.88;0.30;;;;;;;37.43;31.14;97590.63;15281148;19;20422;-67
2023/07/15 14:38:03;;;;;;;0.90;0.30;;;;;;;37.49;31.13;97570.69;15273206;19;20031;-66
2023/07/15 14:43:32;;;;;;;0.70;0.30;;;;;;;37.65;31.39;97563.09;15279162;19;20594;-66
2023/07/15 14:48:59;;;;;;;0.30;0.30;;;;;;;37.66;30.97;97569.50;15273890;19;20070;-67
2023/07/15 14:54:24;;;;;;;3.90;0.40;;;;;;;37.40;31.40;97566.06;15277072;19;20632;-66
2023/07/15 14:59:48;;;;;;;0.90;0.30;;;;;;;37.10;31.34;97555.22;15276520;19;20533;-66
2023/07/15 15:05:15;;;;;;;1.45;0.35;;;;;;;36.80;31.60;97560.34;15274771;19;20364;-67
2023/07/15 15:10:40;;;;;;;1.15;0.50;;;;;;;36.21;32.09;97560.59;15273927;19;20014;-65
2023/07/15 15:16:09;;;;;;;1.33;0.50;;;;;;;35.72;32.35;97557.78;15274600;19;20026;-66
2023/07/15 15:21:36;;;;;;;0.80;0.50;;;;;;;35.43;32.60;97554.03;15273688;19;20017;-65
2023/07/15 15:27:02;;;;;;;0.47;0.20;;;;;;;35.09;32.94;97562.41;15273123;19;20015;-66
2023/07/15 15:32:26;;;;;;;1.10;0.32;;;;;;;34.81;33.71;97554.59;15275083;19;20041;-66
2023/07/15 15:38:02;;;;;;;1.38;0.30;;;;;;;34.77;34.10;97542.47;15272581;19;20019;-66
2023/07/15 15:43:28;;;;;;;0.17;0.13;;;;;;;34.80;34.01;97538.16;15275865;19;20085;-66
2023/07/15 15:49:01;;;;;;;1.50;0.40;;;;;;;34.71;34.46;97530.66;15272401;19;20010;-67
2023/07/15 15:54:28;;;;;;;0.88;0.40;;;;;;;34.50;34.76;97538.25;15272921;19;20249;-66
2023/07/15 15:59:56;;;;;;;1.00;0.32;;;;;;;34.31;35.33;97536.72;15270315;19;20031;-66
2023/07/15 16:05:23;;;;;;;2.30;0.40;;;;;;;34.04;35.60;97540.84;15271237;19;20027;-66
2023/07/15 16:10:50;;;;;;;3.33;0.40;;;;;;;33.84;35.38;97536.81;15275185;19;20078;-65
2023/07/15 16:16:15;;;;;;;1.92;0.50;;;;;;;33.68;36.04;97528.19;15280084;19;20025;-64
2023/07/15 16:21:39;;;;;;;2.60;0.40;;;;;;;33.64;35.85;97528.06;15289361;19;20074;-66
2023/07/15 16:27:07;;;;;;;2.13;0.47;;;;;;;33.55;36.73;97525.28;15283180;19;20019;-65
2023/07/15 16:32:32;;;;;;;0.43;0.30;;;;;;;33.41;36.49;97522.75;15284463;19;20006;-64
2023/07/15 16:37:57;;;;;;;1.10;0.40;;;;;;;33.26;36.59;97518.50;15282891;19;20090;-65
2023/07/15 16:43:24;;;;;;;0.60;0.30;;;;;;;33.03;37.81;97515.94;15287306;19;20018;-65
2023/07/15 16:48:49;;;;;;;2.35;0.50;;;;;;;32.63;39.63;97516.13;15284398;19;20527;-64
2023/07/15 16:54:13;;;;;;;1.95;0.50;;;;;;;32.46;40.44;97503.03;15284381;19;20021;-65
2023/07/15 16:59:41;;;;;;;1.17;0.60;;;;;;;32.08;41.29;97511.97;15280231;19;20446;-64
2023/07/15 17:05:06;;;;;;;2.25;0.60;;;;;;;31.76;41.80;97511.28;15282526;19;20588;-64
2023/07/15 17:10:31;;;;;;;3.85;0.55;;;;;;;31.55;42.46;97514.63;15280537;19;20672;-64
2023/07/15 17:15:58;;;;;;;2.25;0.60;;;;;;;31.35;42.55;97530.72;15284768;19;20022;-64
2023/07/15 17:21:23;;;;;;;1.70;0.50;;;;;;;31.39;43.22;97521.75;15285418;19;20030;-65
2023/07/15 17:26:47;;;;;;;2.63;0.57;;;;;;;31.40;43.23;97520.63;15277749;19;20015;-64
2023/07/15 17:32:15;;;;;;;3.00;0.70;;;;;;;31.25;44.12;97514.31;15286448;19;20090;-67
2023/07/15 17:37:46;;;;;;;4.07;0.55;;;;;;;31.19;44.17;97502.50;15282225;19;20022;-66
2023/07/15 17:43:11;;;;;;;1.75;0.50;;;;;;;31.28;44.62;97505.34;15284313;19;20006;-66
2023/07/15 17:48:38;;;;;;;1.60;0.73;;;;;;;30.92;45.24;97525.72;15281166;19;20039;-66
2023/07/15 17:54:03;;;;;;;1.38;0.70;;;;;;;30.70;46.63;97538.50;15279998;19;20045;-65
2023/07/15 17:59:28;;;;;;;4.35;0.68;;;;;;;30.47;47.18;97559.06;15274012;19;20287;-65
2023/07/15 18:04:56;;;;;;;1.65;0.77;;;;;;;30.27;48.49;97577.84;15275864;19;20421;-65
2023/07/15 18:10:20;;;;;;;4.05;0.80;;;;;;;29.89;50.22;97605.81;15277503;19;20019;-65
2023/07/15 18:15:45;;;;;;;4.20;1.00;;;;;;;29.57;51.66;97626.97;15278429;19;20862;-64
2023/07/15 18:21:12;;;;;;;2.38;0.70;;;;;;;29.22;51.96;97650.28;15278558;19;20011;-65
2023/07/15 18:26:38;;;;;;;2.63;1.00;;;;;;;28.83;52.36;97697.75;15276373;19;20018;-66
2023/07/15 18:32:02;;;;;;;6.38;0.90;;;;;;;28.47;55.07;97729.50;15273945;19;20018;-67
2023/07/15 18:37:38;;;;;;;5.03;0.95;;;;;;;28.06;59.44;97775.09;15272947;19;20011;-66
2023/07/15 18:43:03;;;;;;;5.47;0.95;;;;;;;27.29;83.88;97812.47;15276768;19;20019;-67
2023/07/15 18:48:27;;;;;;;9.20;1.67;;;;;;;25.14;100.00;97812.47;15271105;19;20018;-66
2023/07/15 18:53:55;;;;;;;5.75;1.40;;;;;;;23.93;100.00;97812.06;15273483;19;20013;-67
2023/07/15 18:59:20;;;;;;;4.35;1.38;;;;;;;23.14;100.00;97879.47;15270517;19;20022;-67
2023/07/15 19:04:45;;;;;;;6.38;1.38;;;;;;;22.41;100.00;97947.13;15269056;19;20013;-67
2023/07/15 19:10:13;;;;;;;5.43;1.30;;;;;;;21.94;100.00;97970.19;15272206;19;20007;-64
2023/07/15 19:15:38;;;;;;;4.63;1.33;;;;;;;21.65;100.00;97978.41;15255880;19;20010;-64
2023/07/15 19:21:02;;;;;;;4.03;1.30;;;;;;;21.46;100.00;97991.44;15275998;19;20349;-64
2023/07/15 19:26:30;;;;;;;6.40;1.33;;;;;;;21.37;100.00;97962.75;15274066;19;20010;-64
2023/07/15 19:31:55;;;;;;;5.95;1.63;;;;;;;21.25;100.00;97963.63;15269031;19;20014;-65
2023/07/15 19:37:20;;;;;;;7.45;1.80;;;;;;;21.23;100.00;97930.16;15273679;19;20026;-64
2023/07/15 19:42:47;;;;;;;3.72;1.55;;;;;;;21.15;100.00;97937.94;15271622;19;20018;-62
2023/07/15 19:48:14;;;;;;;6.18;1.40;;;;;;;21.14;100.00;97928.88;15271344;19;20018;-65
2023/07/15 19:53:43;;;;;;;2.10;1.15;;;;;;;21.13;100.00;97864.22;15288395;19;20598;-61
2023/07/15 19:59:13;;;;;;;1.73;0.80;;;;;;;21.14;100.00;97838.47;15286974;19;20018;-61
2023/07/15 20:04:37;;;;;;;1.40;0.80;;;;;;;21.06;100.00;97856.13;15287218;19;20018;-62
2023/07/15 20:10:03;;;;;;;3.13;1.30;;;;;;;20.89;100.00;97828.69;15287476;19;20074;-61
2023/07/15 20:15:24;;;;;;;5.32;1.33;;;;;;;20.86;100.00;97836.56;15283920;19;20464;-64
2023/07/15 20:20:48;;;;;;;3.58;1.10;;;;;;;20.81;100.00;97796.22;15284379;19;20014;-61
2023/07/15 20:26:13;;;;;;;1.50;0.60;;;;;;;20.79;100.00;97779.22;15283299;19;20493;-64
2023/07/15 20:31:40;;;;;;;1.75;0.93;;;;;;;20.65;100.00;97806.00;15285839;19;20339;-62
2023/07/15 20:37:12;;;;;;;3.22;0.90;;;;;;;20.48;100.00;97803.19;15284252;19;20026;-62
2023/07/15 20:42:37;;;;;;;2.95;1.02;;;;;;;20.31;100.00;97825.81;15286291;19;20026;-63
2023/07/15 20:48:04;;;;;;;3.42;1.20;;;;;;;20.18;100.00;97845.19;15280099;19;20386;-63
2023/07/15 20:53:29;;;;;;;3.58;1.17;;;;;;;20.12;100.00;97849.69;15282077;19;20316;-63
2023/07/15 20:58:55;;;;;;;2.40;1.40;;;;;;;20.01;100.00;97847.78;15283206;19;20552;-62
2023/07/15 21:04:23;;;;;;;4.63;1.30;;;;;;;20.00;100.00;97846.97;15283112;19;20014;-62
2023/07/15 21:09:48;;;;;;;4.60;1.10;;;;;;;19.98;100.00;97849.13;15282171;19;20488;-62
2023/07/15 21:15:13;;;;;;;3.28;1.63;;;;;;;19.96;100.00;97845.78;15286851;19;20363;-63
2023/07/15 21:20:40;;;;;;;3.70;1.80;;;;;;;19.85;100.00;97866.56;15282361;19;20022;-63
2023/07/15 21:26:05;;;;;;;3.60;1.60;;;;;;;19.61;100.00;97849.25;15283730;19;20236;-62
2023/07/15 21:31:29;;;;;;;4.28;1.70;;;;;;;19.50;100.00;97880.13;15283351;19;20016;-63
2023/07/15 21:37:03;;;;;;;4.35;2.00;;;;;;;19.33;100.00;97923.63;15281764;19;20022;-62
2023/07/15 21:42:28;;;;;;;4.85;2.10;;;;;;;19.21;100.00;97975.47;15281725;19;20025;-63
2023/07/15 21:47:52;;;;;;;4.22;2.00;;;;;;;19.16;100.00;97995.28;15280406;19;20006;-64
2023/07/15 21:53:20;;;;;;;4.13;2.00;;;;;;;19.07;100.00;97978.34;15274447;19;20032;-63
2023/07/15 21:58:44;;;;;;;3.63;1.90;;;;;;;19.00;100.00;98002.16;15278867;19;20010;-63
2023/07/15 22:04:10;;;;;;;2.65;1.67;;;;;;;18.97;100.00;97975.31;15276631;19;20074;-63
2023/07/15 22:09:31;;;;;;;2.67;1.80;;;;;;;19.00;100.00;97991.22;15277790;19;20019;-64
2023/07/15 22:14:55;;;;;;;4.68;2.13;;;;;;;19.03;100.00;97970.84;15281663;19;20017;-64
2023/07/15 22:20:20;;;;;;;3.92;1.70;;;;;;;19.08;100.00;97974.56;15277277;19;20487;-63
2023/07/15 22:25:48;;;;;;;3.58;1.80;;;;;;;19.14;100.00;97988.34;15279437;19;20014;-64
2023/07/15 22:31:14;;;;;;;2.17;1.60;;;;;;;19.19;100.00;98004.91;15268584;19;20022;-65
2023/07/15 22:36:38;;;;;;;4.18;1.80;;;;;;;19.25;100.00;98036.75;15275969;19;20015;-65
2023/07/15 22:42:07;;;;;;;4.53;2.10;;;;;;;19.32;100.00;98045.72;15276595;19;20010;-66
2023/07/15 22:47:31;;;;;;;6.55;2.38;;;;;;;19.39;100.00;98083.88;15268597;19;20097;-66
2023/07/15 22:52:56;;;;;;;4.85;2.47;;;;;;;19.47;100.00;98127.28;15275789;19;20045;-65
2023/07/15 22:58:23;;;;;;;6.05;3.15;;;;;;;19.53;100.00;98202.06;15273531;19;20078;-65
2023/07/15 23:03:49;;;;;;;4.47;2.38;;;;;;;19.52;100.00;98260.50;15274098;19;20098;-66
2023/07/15 23:09:14;;;;;;;5.07;2.35;;;;;;;19.48;100.00;98281.09;15269263;19;20022;-66
2023/07/15 23:14:42;;;;;;;7.00;1.70;;;;;;;19.61;100.00;98256.41;15272715;19;20555;-67
2023/07/15 23:20:12;;;;;;;29.30;3.22;;;;;;;19.69;100.00;98272.53;15262897;19;20010;-62
2023/07/15 23:25:37;;;;;;;1.73;1.10;;;;;;;19.65;100.00;98241.25;15279661;19;20472;-63
2023/07/15 23:31:07;;;;;;;1.58;1.00;;;;;;;19.66;100.00;98160.06;15287994;19;20018;-63
2023/07/15 23:36:32;;;;;;;1.63;1.10;;;;;;;19.55;100.00;98180.81;15282825;19;20478;-63
2023/07/15 23:41:56;;;;;;;4.10;1.40;;;;;;;19.49;100.00;98151.63;15283092;19;20094;-63
2023/07/15 23:47:24;;;;;;;4.38;1.60;;;;;;;19.47;100.00;98162.81;15282665;19;20014;-63
2023/07/15 23:52:50;;;;;;;2.85;1.40;;;;;;;19.42;100.00;98200.06;15280346;19;20035;-63
2023/07/15 23:58:15;;;;;;;1.23;1.00;;;;;;;19.39;100.00;98174.84;15284824;19;20017;-63
